sensor_id;sensor_type;location;lat;lon;timestamp;pressure;altitude;pressure_sealevel;temperature;humidity
10145;BME280;5113;41.822;23.564;2022-11-04T00:00:24;-11094.31;;;5.79;100.00
10145;BME280;5113;41.822;23.564;2022-11-04T00:03:35;-11087.72;;;5.55;100.00
10145;BME280;5113;41.822;23.564;2022-11-04T00:06:59;-11083.22;;;5.39;100.00
10145;BME280;5113;41.822;23.564;2022-11-04T00:10:06;-11077.63;;;5.18;100.00
10145;BME280;5113;41.822;23.564;2022-11-04T00:13:12;-11078.75;;;5.22;100.00
10145;BME280;5113;41.822;23.564;2022-11-04T00:16:17;-11069.06;;;4.87;100.00
10145;BME280;5113;41.822;23.564;2022-11-04T00:19:42;-11076.06;;;5.13;100.00
10145;BME280;5113;41.822;23.564;2022-11-04T00:23:06;-11083.50;;;5.40;100.00
10145;BME280;5113;41.822;23.564;2022-11-04T00:26:29;-11066.66;;;4.79;100.00
10145;BME280;5113;41.822;23.564;2022-11-04T00:29:53;-11063.44;;;4.67;100.00
10145;BME280;5113;41.822;23.564;2022-11-04T00:32:59;-11067.50;;;4.82;100.00
10145;BME280;5113;41.822;23.564;2022-11-04T00:36:25;-11064.56;;;4.71;100.00
10145;BME280;5113;41.822;23.564;2022-11-04T00:39:31;-11060.91;;;4.58;100.00
10145;BME280;5113;41.822;23.564;2022-11-04T00:42:37;-11053.47;;;4.31;100.00
10145;BME280;5113;41.822;23.564;2022-11-04T00:45:43;-11049.84;;;4.18;100.00
10145;BME280;5113;41.822;23.564;2022-11-04T00:48:50;-11071.44;;;4.96;100.00
10145;BME280;5113;41.822;23.564;2022-11-04T00:51:57;-11086.03;;;5.49;100.00
10145;BME280;5113;41.822;23.564;2022-11-04T00:55:05;-11082.94;;;5.38;100.00
10145;BME280;5113;41.822;23.564;2022-11-04T00:58:11;-11075.81;;;5.12;100.00
10145;BME280;5113;41.822;23.564;2022-11-04T01:01:18;-11065.00;;;4.73;100.00
10145;BME280;5113;41.822;23.564;2022-11-04T01:04:24;-11064.00;;;4.69;100.00
10145;BME280;5113;41.822;23.564;2022-11-04T01:07:32;-11065.97;;;4.76;100.00
10145;BME280;5113;41.822;23.564;2022-11-04T01:10:44;-11075.38;;;5.10;100.00
10145;BME280;5113;41.822;23.564;2022-11-04T01:13:51;-11068.78;;;4.86;100.00
10145;BME280;5113;41.822;23.564;2022-11-04T01:16:57;-11075.09;;;5.09;100.00
10145;BME280;5113;41.822;23.564;2022-11-04T01:20:03;-11059.09;;;4.51;100.00
10145;BME280;5113;41.822;23.564;2022-11-04T01:23:11;-11053.91;;;4.32;100.00
10145;BME280;5113;41.822;23.564;2022-11-04T01:26:20;-11033.69;;;3.59;100.00
10145;BME280;5113;41.822;23.564;2022-11-04T01:29:26;-11048.72;;;4.14;100.00
10145;BME280;5113;41.822;23.564;2022-11-04T01:32:33;-11046.19;;;4.05;100.00
10145;BME280;5113;41.822;23.564;2022-11-04T01:35:39;-11049.41;;;4.16;100.00
10145;BME280;5113;41.822;23.564;2022-11-04T01:38:47;-11067.78;;;4.83;100.00
10145;BME280;5113;41.822;23.564;2022-11-04T01:41:54;-11051.50;;;4.24;100.00
10145;BME280;5113;41.822;23.564;2022-11-04T01:45:00;-11064.16;;;4.70;100.00
10145;BME280;5113;41.822;23.564;2022-11-04T01:48:12;-11067.09;;;4.80;100.00
10145;BME280;5113;41.822;23.564;2022-11-04T01:51:22;-11050.81;;;4.21;100.00
10145;BME280;5113;41.822;23.564;2022-11-04T01:54:30;-11045.06;;;4.01;100.00
10145;BME280;5113;41.822;23.564;2022-11-04T01:57:39;-11056.84;;;4.43;100.00
10145;BME280;5113;41.822;23.564;2022-11-04T02:00:47;-11045.06;;;4.01;100.00
10145;BME280;5113;41.822;23.564;2022-11-04T02:03:56;-11045.91;;;4.04;100.00
10145;BME280;5113;41.822;23.564;2022-11-04T02:07:23;-11030.63;;;3.48;100.00
10145;BME280;5113;41.822;23.564;2022-11-04T02:10:31;-11044.78;;;4.00;100.00
10145;BME280;5113;41.822;23.564;2022-11-04T02:13:38;-11047.44;;;4.09;100.00
10145;BME280;5113;41.822;23.564;2022-11-04T02:16:44;-11034.81;;;3.63;100.00
10145;BME280;5113;41.822;23.564;2022-11-04T02:20:03;-11037.50;;;3.73;100.00
10145;BME280;5113;41.822;23.564;2022-11-04T02:23:29;-11040.56;;;3.84;100.00
10145;BME280;5113;41.822;23.564;2022-11-04T02:27:11;-11036.09;;;3.68;100.00
10145;BME280;5113;41.822;23.564;2022-11-04T02:30:23;-11033.41;;;3.58;100.00
10145;BME280;5113;41.822;23.564;2022-11-04T02:33:33;-11044.94;;;4.00;100.00
10145;BME280;5113;41.822;23.564;2022-11-04T02:36:47;-11051.25;;;4.23;100.00
10145;BME280;5113;41.822;23.564;2022-11-04T02:40:06;-11048.16;;;4.12;100.00
10145;BME280;5113;41.822;23.564;2022-11-04T02:43:21;-11048.16;;;4.12;100.00
10145;BME280;5113;41.822;23.564;2022-11-04T02:46:34;-11045.22;;;4.01;100.00
10145;BME280;5113;41.822;23.564;2022-11-04T02:49:48;-11048.16;;;4.12;100.00
10145;BME280;5113;41.822;23.564;2022-11-04T02:52:58;-11053.06;;;4.29;100.00
10145;BME280;5113;41.822;23.564;2022-11-04T02:56:07;-11059.09;;;4.51;100.00
10145;BME280;5113;41.822;23.564;2022-11-04T02:59:18;-11052.63;;;4.28;100.00
10145;BME280;5113;41.822;23.564;2022-11-04T03:02:32;-11039.72;;;3.81;100.00
10145;BME280;5113;41.822;23.564;2022-11-04T03:05:41;-11029.63;;;3.45;100.00
10145;BME280;5113;41.822;23.564;2022-11-04T03:08:51;-11021.22;;;3.14;100.00
10145;BME280;5113;41.822;23.564;2022-11-04T03:12:01;-11003.81;;;2.51;100.00
10145;BME280;5113;41.822;23.564;2022-11-04T03:15:12;-11011.53;;;2.79;100.00
10145;BME280;5113;41.822;23.564;2022-11-04T03:18:24;-11037.50;;;3.73;100.00
10145;BME280;5113;41.822;23.564;2022-11-04T03:21:39;-11025.44;;;3.29;100.00
10145;BME280;5113;41.822;23.564;2022-11-04T03:24:47;-11006.78;;;2.62;100.00
10145;BME280;5113;41.822;23.564;2022-11-04T03:28:00;-11005.66;;;2.58;100.00
10145;BME280;5113;41.822;23.564;2022-11-04T03:31:10;-11020.09;;;3.10;100.00
10145;BME280;5113;41.822;23.564;2022-11-04T03:34:19;-11021.22;;;3.14;100.00
10145;BME280;5113;41.822;23.564;2022-11-04T03:37:25;-11023.31;;;3.22;100.00
10145;BME280;5113;41.822;23.564;2022-11-04T03:40:31;-11027.37;;;3.37;100.00
10145;BME280;5113;41.822;23.564;2022-11-04T03:43:39;-11040.00;;;3.82;100.00
10145;BME280;5113;41.822;23.564;2022-11-04T03:46:46;-11048.16;;;4.12;100.00
10145;BME280;5113;41.822;23.564;2022-11-04T03:50:00;-11048.44;;;4.13;100.00
10145;BME280;5113;41.822;23.564;2022-11-04T03:53:11;-11027.09;;;3.36;100.00
10145;BME280;5113;41.822;23.564;2022-11-04T04:00:10;-11032.44;;;3.55;100.00
10145;BME280;5113;41.822;23.564;2022-11-04T04:03:20;-11022.34;;;3.18;100.00
10145;BME280;5113;41.822;23.564;2022-11-04T04:06:33;-11023.75;;;3.23;100.00
10145;BME280;5113;41.822;23.564;2022-11-04T04:09:43;-11011.41;;;2.79;100.00
10145;BME280;5113;41.822;23.564;2022-11-04T04:12:52;-11016.72;;;2.98;100.00
10145;BME280;5113;41.822;23.564;2022-11-04T04:16:03;-11035.81;;;3.67;100.00
10145;BME280;5113;41.822;23.564;2022-11-04T04:19:14;-11030.75;;;3.49;100.00
10145;BME280;5113;41.822;23.564;2022-11-04T04:22:27;-11008.31;;;2.68;100.00
10145;BME280;5113;41.822;23.564;2022-11-04T04:25:34;-11018.69;;;3.05;100.00
10145;BME280;5113;41.822;23.564;2022-11-04T04:29:09;-11019.25;;;3.07;100.00
10145;BME280;5113;41.822;23.564;2022-11-04T04:32:17;-11020.50;;;3.12;100.00
10145;BME280;5113;41.822;23.564;2022-11-04T04:35:26;-11024.31;;;3.25;100.00
10145;BME280;5113;41.822;23.564;2022-11-04T04:38:50;-11026.28;;;3.33;100.00
10145;BME280;5113;41.822;23.564;2022-11-04T04:42:13;-11029.06;;;3.43;100.00
10145;BME280;5113;41.822;23.564;2022-11-04T04:45:40;-11020.38;;;3.11;100.00
10145;BME280;5113;41.822;23.564;2022-11-04T04:48:47;-11019.25;;;3.07;100.00
10145;BME280;5113;41.822;23.564;2022-11-04T04:51:53;-11020.09;;;3.10;100.00
10145;BME280;5113;41.822;23.564;2022-11-04T04:55:00;-11006.63;;;2.61;100.00
10145;BME280;5113;41.822;23.564;2022-11-04T04:58:08;-11003.25;;;2.49;100.00
10145;BME280;5113;41.822;23.564;2022-11-04T05:01:14;-11012.53;;;2.83;100.00
10145;BME280;5113;41.822;23.564;2022-11-04T05:04:20;-11022.75;;;3.20;100.00
10145;BME280;5113;41.822;23.564;2022-11-04T05:07:26;-10997.94;;;2.30;100.00
10145;BME280;5113;41.822;23.564;2022-11-04T05:10:34;-10987.44;;;1.92;100.00
10145;BME280;5113;41.822;23.564;2022-11-04T05:13:40;-11014.75;;;2.91;100.00
10145;BME280;5113;41.822;23.564;2022-11-04T05:16:46;-11027.66;;;3.38;100.00
10145;BME280;5113;41.822;23.564;2022-11-04T05:19:52;-11018.41;;;3.04;100.00
10145;BME280;5113;41.822;23.564;2022-11-04T05:22:59;-11015.88;;;2.95;100.00
10145;BME280;5113;41.822;23.564;2022-11-04T05:26:07;-11011.69;;;2.80;100.00
10145;BME280;5113;41.822;23.564;2022-11-04T05:29:13;-11032.44;;;3.55;100.00
10145;BME280;5113;41.822;23.564;2022-11-04T05:32:24;-11021.91;;;3.17;100.00
10145;BME280;5113;41.822;23.564;2022-11-04T05:35:30;-11043.38;;;3.94;100.00
10145;BME280;5113;41.822;23.564;2022-11-04T05:38:37;-11020.66;;;3.12;100.00
10145;BME280;5113;41.822;23.564;2022-11-04T05:41:44;-11031.31;;;3.51;100.00
10145;BME280;5113;41.822;23.564;2022-11-04T05:44:50;-11003.25;;;2.49;100.00
10145;BME280;5113;41.822;23.564;2022-11-04T05:47:57;-11027.25;;;3.36;100.00
10145;BME280;5113;41.822;23.564;2022-11-04T05:51:04;-11046.19;;;4.05;100.00
10145;BME280;5113;41.822;23.564;2022-11-04T05:54:10;-11053.34;;;4.30;100.00
10145;BME280;5113;41.822;23.564;2022-11-04T05:57:18;-11052.91;;;4.29;100.00
10145;BME280;5113;41.822;23.564;2022-11-04T06:00:24;-11063.88;;;4.69;100.00
10145;BME280;5113;41.822;23.564;2022-11-04T06:03:31;-11077.91;;;5.19;100.00
10145;BME280;5113;41.822;23.564;2022-11-04T06:06:37;-11070.88;;;4.94;100.00
10145;BME280;5113;41.822;23.564;2022-11-04T06:09:43;-11071.03;;;4.94;100.00
10145;BME280;5113;41.822;23.564;2022-11-04T06:12:50;-11071.72;;;4.97;100.00
10145;BME280;5113;41.822;23.564;2022-11-04T06:15:56;-11075.81;;;5.12;100.00
10145;BME280;5113;41.822;23.564;2022-11-04T06:19:03;-11091.38;;;5.68;100.00
10145;BME280;5113;41.822;23.564;2022-11-04T06:22:14;-11074.41;;;5.07;100.00
10145;BME280;5113;41.822;23.564;2022-11-04T06:25:20;-11090.81;;;5.66;100.00
10145;BME280;5113;41.822;23.564;2022-11-04T06:28:28;-11102.91;;;6.10;100.00
10145;BME280;5113;41.822;23.564;2022-11-04T06:31:34;-11090.81;;;5.66;100.00
10145;BME280;5113;41.822;23.564;2022-11-04T06:34:41;-11096.16;;;5.85;100.00
10145;BME280;5113;41.822;23.564;2022-11-04T06:37:47;-11107.97;;;6.28;100.00
10145;BME280;5113;41.822;23.564;2022-11-04T06:40:53;-11106.97;;;6.24;100.00
10145;BME280;5113;41.822;23.564;2022-11-04T06:44:01;-11115.53;;;6.55;100.00
10145;BME280;5113;41.822;23.564;2022-11-04T06:47:08;-11119.75;;;6.71;100.00
10145;BME280;5113;41.822;23.564;2022-11-04T06:50:14;-11123.53;;;6.84;100.00
10145;BME280;5113;41.822;23.564;2022-11-04T06:53:20;-11136.03;;;7.29;100.00
10145;BME280;5113;41.822;23.564;2022-11-04T06:56:27;-11149.94;;;7.80;100.00
10145;BME280;5113;41.822;23.564;2022-11-04T06:59:34;-11149.25;;;7.77;100.00
10145;BME280;5113;41.822;23.564;2022-11-04T07:02:41;-11156.13;;;8.02;100.00
10145;BME280;5113;41.822;23.564;2022-11-04T07:05:47;-11162.59;;;8.25;100.00
10145;BME280;5113;41.822;23.564;2022-11-04T07:08:56;-11167.38;;;8.43;100.00
10145;BME280;5113;41.822;23.564;2022-11-04T07:12:03;-11173.44;;;8.65;100.00
10145;BME280;5113;41.822;23.564;2022-11-04T07:15:11;-11176.09;;;8.74;100.00
10145;BME280;5113;41.822;23.564;2022-11-04T07:18:17;-11184.25;;;9.04;100.00
10145;BME280;5113;41.822;23.564;2022-11-04T07:21:24;-11184.94;;;9.06;100.00
10145;BME280;5113;41.822;23.564;2022-11-04T07:24:30;-11184.53;;;9.05;100.00
10145;BME280;5113;41.822;23.564;2022-11-04T07:27:37;-11197.47;;;9.51;100.00
10145;BME280;5113;41.822;23.564;2022-11-04T07:30:44;-11204.63;;;9.77;99.61
10145;BME280;5113;41.822;23.564;2022-11-04T07:33:50;-11197.75;;;9.52;100.00
10145;BME280;5113;41.822;23.564;2022-11-04T07:36:56;-11197.88;;;9.53;100.00
10145;BME280;5113;41.822;23.564;2022-11-04T07:40:03;-11219.81;;;10.32;94.80
10145;BME280;5113;41.822;23.564;2022-11-04T07:43:09;-11219.13;;;10.30;94.58
10145;BME280;5113;41.822;23.564;2022-11-04T07:46:18;-11226.44;;;10.56;93.38
10145;BME280;5113;41.822;23.564;2022-11-04T07:49:25;-11219.97;;;10.33;94.30
10145;BME280;5113;41.822;23.564;2022-11-04T07:52:31;-11225.16;;;10.51;92.57
10145;BME280;5113;41.822;23.564;2022-11-04T07:55:37;-11232.63;;;10.78;91.68
10145;BME280;5113;41.822;23.564;2022-11-04T07:58:47;-11234.19;;;10.84;91.10
10145;BME280;5113;41.822;23.564;2022-11-04T08:01:54;-11238.09;;;10.98;89.91
10145;BME280;5113;41.822;23.564;2022-11-04T08:05:01;-11253.03;;;11.52;87.19
10145;BME280;5113;41.822;23.564;2022-11-04T08:08:07;-11245.00;;;11.23;88.92
10145;BME280;5113;41.822;23.564;2022-11-04T08:11:15;-11245.56;;;11.25;87.68
10145;BME280;5113;41.822;23.564;2022-11-04T08:14:22;-11256.41;;;11.64;86.45
10145;BME280;5113;41.822;23.564;2022-11-04T08:17:30;-11259.06;;;11.74;85.57
10145;BME280;5113;41.822;23.564;2022-11-04T08:20:37;-11265.84;;;11.98;84.42
10145;BME280;5113;41.822;23.564;2022-11-04T08:23:43;-11268.22;;;12.07;84.34
10145;BME280;5113;41.822;23.564;2022-11-04T08:26:49;-11274.41;;;12.29;84.66
10145;BME280;5113;41.822;23.564;2022-11-04T08:29:56;-11278.34;;;12.43;83.73
10145;BME280;5113;41.822;23.564;2022-11-04T08:33:03;-11276.94;;;12.38;83.79
10145;BME280;5113;41.822;23.564;2022-11-04T08:36:13;-11282.16;;;12.57;83.25
10145;BME280;5113;41.822;23.564;2022-11-04T08:39:19;-11283.13;;;12.61;83.51
10145;BME280;5113;41.822;23.564;2022-11-04T08:42:25;-11294.69;;;13.02;79.75
10145;BME280;5113;41.822;23.564;2022-11-04T08:45:31;-11300.75;;;13.24;78.43
10145;BME280;5113;41.822;23.564;2022-11-04T08:48:40;-11298.19;;;13.15;79.08
10145;BME280;5113;41.822;23.564;2022-11-04T08:51:46;-11324.25;;;14.09;75.45
10145;BME280;5113;41.822;23.564;2022-11-04T08:54:53;-11322.56;;;14.03;73.37
10145;BME280;5113;41.822;23.564;2022-11-04T08:58:01;-11319.87;;;13.93;73.14
10145;BME280;5113;41.822;23.564;2022-11-04T09:01:08;-11319.03;;;13.90;73.30
10145;BME280;5113;41.822;23.564;2022-11-04T09:04:18;-11335.50;;;14.49;72.50
10145;BME280;5113;41.822;23.564;2022-11-04T09:07:24;-11331.00;;;14.33;70.56
10145;BME280;5113;41.822;23.564;2022-11-04T09:10:30;-11341.16;;;14.70;69.25
10145;BME280;5113;41.822;23.564;2022-11-04T09:13:36;-11355.78;;;15.23;68.57
10145;BME280;5113;41.822;23.564;2022-11-04T09:16:43;-11363.53;;;15.50;65.05
10145;BME280;5113;41.822;23.564;2022-11-04T09:19:50;-11352.41;;;15.10;65.60
10145;BME280;5113;41.822;23.564;2022-11-04T09:22:57;-11352.56;;;15.11;65.22
10145;BME280;5113;41.822;23.564;2022-11-04T09:26:05;-11347.22;;;14.92;65.68
10145;BME280;5113;41.822;23.564;2022-11-04T09:29:12;-11357.06;;;15.27;64.96
10145;BME280;5113;41.822;23.564;2022-11-04T09:32:18;-11360.44;;;15.39;64.97
10145;BME280;5113;41.822;23.564;2022-11-04T09:35:26;-11362.00;;;15.45;64.69
10145;BME280;5113;41.822;23.564;2022-11-04T09:38:32;-11374.13;;;15.89;63.11
10145;BME280;5113;41.822;23.564;2022-11-04T09:45:16;-11377.63;;;16.01;61.75
10145;BME280;5113;41.822;23.564;2022-11-04T09:48:30;-11377.50;;;16.01;62.24
10145;BME280;5113;41.822;23.564;2022-11-04T09:51:39;-11381.72;;;16.16;61.45
10145;BME280;5113;41.822;23.564;2022-11-04T09:55:04;-11390.47;;;16.47;60.56
10145;BME280;5113;41.822;23.564;2022-11-04T09:58:16;-11383.56;;;16.23;60.32
10145;BME280;5113;41.822;23.564;2022-11-04T10:01:27;-11396.81;;;16.70;60.05
10145;BME280;5113;41.822;23.564;2022-11-04T10:04:45;-11405.69;;;17.02;59.24
10145;BME280;5113;41.822;23.564;2022-11-04T10:08:12;-11409.78;;;17.17;59.07
10145;BME280;5113;41.822;23.564;2022-11-04T10:11:27;-11418.09;;;17.47;57.12
10145;BME280;5113;41.822;23.564;2022-11-04T10:15:00;-11415.25;;;17.37;58.36
10145;BME280;5113;41.822;23.564;2022-11-04T10:18:23;-11415.25;;;17.37;57.98
10145;BME280;5113;41.822;23.564;2022-11-04T10:21:40;-11409.91;;;17.17;57.84
10145;BME280;5113;41.822;23.564;2022-11-04T10:25:00;-11413.56;;;17.31;57.30
10145;BME280;5113;41.822;23.564;2022-11-04T10:28:11;-11432.19;;;17.98;56.26
10145;BME280;5113;41.822;23.564;2022-11-04T10:31:19;-11425.41;;;17.73;56.50
10145;BME280;5113;41.822;23.564;2022-11-04T10:34:29;-11434.72;;;18.07;55.84
10145;BME280;5113;41.822;23.564;2022-11-04T10:37:37;-11452.75;;;18.72;52.94
10145;BME280;5113;41.822;23.564;2022-11-04T10:40:48;-11452.75;;;18.72;53.16
10145;BME280;5113;41.822;23.564;2022-11-04T10:43:56;-11442.34;;;18.34;53.98
10145;BME280;5113;41.822;23.564;2022-11-04T10:47:13;-11455.59;;;18.82;53.19
10145;BME280;5113;41.822;23.564;2022-11-04T10:50:33;-11455.03;;;18.80;53.36
10145;BME280;5113;41.822;23.564;2022-11-04T10:53:42;-11459.81;;;18.97;51.30
10145;BME280;5113;41.822;23.564;2022-11-04T10:56:51;-11468.97;;;19.30;51.32
10145;BME280;5113;41.822;23.564;2022-11-04T10:59:59;-11453.91;;;18.76;52.90
10145;BME280;5113;41.822;23.564;2022-11-04T11:03:29;-11470.81;;;19.37;52.54
10145;BME280;5113;41.822;23.564;2022-11-04T11:06:35;-11471.66;;;19.40;51.63
10145;BME280;5113;41.822;23.564;2022-11-04T11:09:49;-11486.03;;;19.92;50.19
10145;BME280;5113;41.822;23.564;2022-11-04T11:13:01;-11474.75;;;19.51;50.85
10145;BME280;5113;41.822;23.564;2022-11-04T11:16:11;-11480.97;;;19.73;50.87
10145;BME280;5113;41.822;23.564;2022-11-04T11:19:20;-11490.28;;;20.07;50.24
10145;BME280;5113;41.822;23.564;2022-11-04T11:22:29;-11483.78;;;19.84;49.18
10145;BME280;5113;41.822;23.564;2022-11-04T11:25:38;-11485.91;;;19.91;47.71
10145;BME280;5113;41.822;23.564;2022-11-04T11:28:51;-11483.66;;;19.83;48.56
10145;BME280;5113;41.822;23.564;2022-11-04T11:32:03;-11496.47;;;20.29;47.86
10145;BME280;5113;41.822;23.564;2022-11-04T11:35:14;-11511.28;;;20.83;46.83
10145;BME280;5113;41.822;23.564;2022-11-04T11:38:23;-11505.78;;;20.63;47.12
10145;BME280;5113;41.822;23.564;2022-11-04T11:41:33;-11490.28;;;20.07;47.65
10145;BME280;5113;41.822;23.564;2022-11-04T11:44:50;-11465.44;;;19.18;50.22
10145;BME280;5113;41.822;23.564;2022-11-04T11:47:58;-11497.31;;;20.32;47.95
10145;BME280;5113;41.822;23.564;2022-11-04T11:51:05;-11500.16;;;20.42;46.82
10145;BME280;5113;41.822;23.564;2022-11-04T11:54:28;-11492.81;;;20.16;48.19
10145;BME280;5113;41.822;23.564;2022-11-04T11:57:46;-11500.56;;;20.44;46.33
10145;BME280;5113;41.822;23.564;2022-11-04T12:01:23;-11460.25;;;18.99;49.42
10145;BME280;5113;41.822;23.564;2022-11-04T12:04:31;-11475.06;;;19.52;49.64
10145;BME280;5113;41.822;23.564;2022-11-04T12:08:11;-11485.19;;;19.89;47.86
10145;BME280;5113;41.822;23.564;2022-11-04T12:11:50;-11509.47;;;20.76;46.64
10145;BME280;5113;41.822;23.564;2022-11-04T12:15:12;-11516.78;;;21.02;45.65
10145;BME280;5113;41.822;23.564;2022-11-04T12:18:39;-11507.06;;;20.67;44.82
10145;BME280;5113;41.822;23.564;2022-11-04T12:21:56;-11499.59;;;20.40;46.11
10145;BME280;5113;41.822;23.564;2022-11-04T12:25:10;-11492.25;;;20.14;46.45
10145;BME280;5113;41.822;23.564;2022-11-04T12:28:27;-11510.16;;;20.79;46.82
10145;BME280;5113;41.822;23.564;2022-11-04T12:31:42;-11490.84;;;20.09;46.85
10145;BME280;5113;41.822;23.564;2022-11-04T12:35:05;-11489.72;;;20.05;47.12
10145;BME280;5113;41.822;23.564;2022-11-04T12:38:26;-11491.97;;;20.13;47.07
10145;BME280;5113;41.822;23.564;2022-11-04T12:41:43;-11481.81;;;19.76;48.06
10145;BME280;5113;41.822;23.564;2022-11-04T12:45:24;-11488.88;;;20.02;47.28
10145;BME280;5113;41.822;23.564;2022-11-04T12:49:03;-11502.13;;;20.50;45.75
10145;BME280;5113;41.822;23.564;2022-11-04T12:52:25;-11502.41;;;20.51;45.45
10145;BME280;5113;41.822;23.564;2022-11-04T12:55:43;-11523.72;;;21.27;44.91
10145;BME280;5113;41.822;23.564;2022-11-04T13:02:41;-11537.69;;;21.78;43.16
10145;BME280;5113;41.822;23.564;2022-11-04T13:05:51;-11498.44;;;20.36;46.18
10145;BME280;5113;41.822;23.564;2022-11-04T13:09:02;-11488.88;;;20.02;46.45
10145;BME280;5113;41.822;23.564;2022-11-04T13:12:13;-11481.25;;;19.74;46.17
10145;BME280;5113;41.822;23.564;2022-11-04T13:15:23;-11474.19;;;19.49;46.88
10145;BME280;5113;41.822;23.564;2022-11-04T13:18:34;-11474.19;;;19.49;46.43
10145;BME280;5113;41.822;23.564;2022-11-04T13:21:42;-11472.38;;;19.42;45.90
10145;BME280;5113;41.822;23.564;2022-11-04T13:24:53;-11471.22;;;19.38;46.27
10145;BME280;5113;41.822;23.564;2022-11-04T13:28:01;-11487.75;;;19.98;45.14
10145;BME280;5113;41.822;23.564;2022-11-04T13:31:12;-11467.44;;;19.25;46.83
10145;BME280;5113;41.822;23.564;2022-11-04T13:34:26;-11467.84;;;19.26;46.60
10145;BME280;5113;41.822;23.564;2022-11-04T13:37:41;-11474.19;;;19.49;46.04
10145;BME280;5113;41.822;23.564;2022-11-04T13:41:06;-11474.91;;;19.52;45.29
10145;BME280;5113;41.822;23.564;2022-11-04T13:44:24;-11469.69;;;19.33;45.90
10145;BME280;5113;41.822;23.564;2022-11-04T13:47:35;-11470.25;;;19.35;45.31
10145;BME280;5113;41.822;23.564;2022-11-04T13:50:42;-11478.72;;;19.65;44.73
10145;BME280;5113;41.822;23.564;2022-11-04T13:53:52;-11465.44;;;19.18;45.24
10145;BME280;5113;41.822;23.564;2022-11-04T13:57:11;-11461.66;;;19.04;45.05
10145;BME280;5113;41.822;23.564;2022-11-04T14:00:22;-11467.72;;;19.26;44.94
10145;BME280;5113;41.822;23.564;2022-11-04T14:03:48;-11465.72;;;19.19;44.52
10145;BME280;5113;41.822;23.564;2022-11-04T14:06:58;-11466.00;;;19.20;44.13
10145;BME280;5113;41.822;23.564;2022-11-04T14:10:37;-11464.59;;;19.14;43.83
10145;BME280;5113;41.822;23.564;2022-11-04T14:14:16;-11464.03;;;19.12;45.12
10145;BME280;5113;41.822;23.564;2022-11-04T14:17:56;-11451.63;;;18.68;49.02
10145;BME280;5113;41.822;23.564;2022-11-04T14:21:07;-11442.63;;;18.35;50.17
10145;BME280;5113;41.822;23.564;2022-11-04T14:24:16;-11438.38;;;18.20;51.13
10145;BME280;5113;41.822;23.564;2022-11-04T14:27:29;-11424.16;;;17.69;53.63
10145;BME280;5113;41.822;23.564;2022-11-04T14:30:45;-11418.94;;;17.50;54.89
10145;BME280;5113;41.822;23.564;2022-11-04T14:33:54;-11411.03;;;17.22;56.49
10145;BME280;5113;41.822;23.564;2022-11-04T14:37:04;-11392.84;;;16.56;63.96
10145;BME280;5113;41.822;23.564;2022-11-04T14:40:23;-11389.34;;;16.43;65.61
10145;BME280;5113;41.822;23.564;2022-11-04T14:43:32;-11385.66;;;16.30;67.25
10145;BME280;5113;41.822;23.564;2022-11-04T14:46:43;-11386.50;;;16.33;66.12
10145;BME280;5113;41.822;23.564;2022-11-04T14:49:52;-11380.19;;;16.10;68.42
10145;BME280;5113;41.822;23.564;2022-11-04T14:53:08;-11376.50;;;15.97;68.89
10145;BME280;5113;41.822;23.564;2022-11-04T14:56:21;-11381.31;;;16.14;66.10
10145;BME280;5113;41.822;23.564;2022-11-04T14:59:28;-11376.94;;;15.99;68.21
10145;BME280;5113;41.822;23.564;2022-11-04T15:02:36;-11374.41;;;15.90;68.23
10145;BME280;5113;41.822;23.564;2022-11-04T15:05:47;-11365.94;;;15.59;69.79
10145;BME280;5113;41.822;23.564;2022-11-04T15:08:55;-11367.91;;;15.66;69.41
10145;BME280;5113;41.822;23.564;2022-11-04T15:12:10;-11367.91;;;15.66;67.84
10145;BME280;5113;41.822;23.564;2022-11-04T15:15:35;-11352.00;;;15.09;73.15
10145;BME280;5113;41.822;23.564;2022-11-04T15:18:45;-11350.16;;;15.02;74.80
10145;BME280;5113;41.822;23.564;2022-11-04T15:21:52;-11348.75;;;14.97;75.25
10145;BME280;5113;41.822;23.564;2022-11-04T15:25:01;-11344.81;;;14.83;75.91
10145;BME280;5113;41.822;23.564;2022-11-04T15:28:16;-11340.31;;;14.67;76.30
10145;BME280;5113;41.822;23.564;2022-11-04T15:31:24;-11325.38;;;14.13;80.94
10145;BME280;5113;41.822;23.564;2022-11-04T15:34:34;-11329.03;;;14.26;81.28
10145;BME280;5113;41.822;23.564;2022-11-04T15:37:41;-11329.59;;;14.28;80.15
10145;BME280;5113;41.822;23.564;2022-11-04T15:40:49;-11331.56;;;14.35;79.83
10145;BME280;5113;41.822;23.564;2022-11-04T15:43:56;-11326.38;;;14.16;81.20
10145;BME280;5113;41.822;23.564;2022-11-04T15:47:17;-11322.41;;;14.02;82.36
10145;BME280;5113;41.822;23.564;2022-11-04T15:50:26;-11322.13;;;14.01;81.09
10145;BME280;5113;41.822;23.564;2022-11-04T15:53:45;-11317.06;;;13.83;82.03
10145;BME280;5113;41.822;23.564;2022-11-04T15:56:53;-11313.56;;;13.70;83.57
10145;BME280;5113;41.822;23.564;2022-11-04T16:00:03;-11313.56;;;13.70;83.09
10145;BME280;5113;41.822;23.564;2022-11-04T16:03:17;-11303.97;;;13.36;85.99
10145;BME280;5113;41.822;23.564;2022-11-04T16:06:36;-11300.88;;;13.25;87.42
10145;BME280;5113;41.822;23.564;2022-11-04T16:09:45;-11286.22;;;12.72;86.91
10145;BME280;5113;41.822;23.564;2022-11-04T16:12:55;-11290.59;;;12.87;87.06
10145;BME280;5113;41.822;23.564;2022-11-04T16:16:07;-11296.50;;;13.09;85.55
10145;BME280;5113;41.822;23.564;2022-11-04T16:19:20;-11289.34;;;12.83;88.43
10145;BME280;5113;41.822;23.564;2022-11-04T16:22:30;-11290.47;;;12.87;87.18
10145;BME280;5113;41.822;23.564;2022-11-04T16:25:37;-11295.81;;;13.06;83.88
10145;BME280;5113;41.822;23.564;2022-11-04T16:28:43;-11310.88;;;13.61;68.93
10145;BME280;5113;41.822;23.564;2022-11-04T16:32:11;-11300.31;;;13.23;73.05
10145;BME280;5113;41.822;23.564;2022-11-04T16:35:21;-11287.34;;;12.76;79.87
10145;BME280;5113;41.822;23.564;2022-11-04T16:38:29;-11285.53;;;12.69;82.13
10145;BME280;5113;41.822;23.564;2022-11-04T16:41:37;-11275.81;;;12.34;84.25
10145;BME280;5113;41.822;23.564;2022-11-04T16:44:48;-11283.28;;;12.61;81.93
10145;BME280;5113;41.822;23.564;2022-11-04T16:47:55;-11283.28;;;12.61;81.97
10145;BME280;5113;41.822;23.564;2022-11-04T16:51:02;-11273.56;;;12.26;84.35